sensor_id;sensor_type;location;lat;lon;timestamp;pressure;altitude;pressure_sealevel;temperature;humidity
48115;BME280;33903;44.704;10.448;2024-02-23T00:01:59;98894.69;;;14.95;81.65
48115;BME280;33903;44.704;10.448;2024-02-23T00:05:04;98899.66;;;14.92;81.75
48115;BME280;33903;44.704;10.448;2024-02-23T00:08:10;98880.25;;;15.16;81.04
48115;BME280;33903;44.704;10.448;2024-02-23T00:11:14;98887.13;;;15.19;80.79
48115;BME280;33903;44.704;10.448;2024-02-23T00:14:19;98893.69;;;14.69;82.11
48115;BME280;33903;44.704;10.448;2024-02-23T00:17:24;98876.09;;;15.14;81.13
48115;BME280;33903;44.704;10.448;2024-02-23T00:20:29;98868.97;;;15.06;81.37
48115;BME280;33903;44.704;10.448;2024-02-23T00:23:33;98855.56;;;14.57;82.30
48115;BME280;33903;44.704;10.448;2024-02-23T00:26:38;98848.81;;;14.19;84.38
48115;BME280;33903;44.704;10.448;2024-02-23T00:29:42;98846.97;;;14.47;82.95
48115;BME280;33903;44.704;10.448;2024-02-23T00:32:46;98842.81;;;14.02;85.26
48115;BME280;33903;44.704;10.448;2024-02-23T00:35:51;98836.31;;;14.18;84.43
48115;BME280;33903;44.704;10.448;2024-02-23T00:38:55;98839.47;;;14.21;84.58
48115;BME280;33903;44.704;10.448;2024-02-23T00:42:00;98837.94;;;14.12;84.67
48115;BME280;33903;44.704;10.448;2024-02-23T00:45:05;98839.91;;;14.25;84.74
48115;BME280;33903;44.704;10.448;2024-02-23T00:48:09;98816.34;;;14.33;83.70
48115;BME280;33903;44.704;10.448;2024-02-23T00:51:14;98820.84;;;14.54;82.85
48115;BME280;33903;44.704;10.448;2024-02-23T00:54:19;98808.81;;;14.29;83.76
48115;BME280;33903;44.704;10.448;2024-02-23T00:57:23;98796.34;;;14.28;84.12
48115;BME280;33903;44.704;10.448;2024-02-23T01:00:33;98804.13;;;14.38;83.43
48115;BME280;33903;44.704;10.448;2024-02-23T01:03:38;98804.94;;;14.31;83.02
48115;BME280;33903;44.704;10.448;2024-02-23T01:06:42;98789.25;;;14.27;83.95
48115;BME280;33903;44.704;10.448;2024-02-23T01:09:47;98780.75;;;14.23;83.84
48115;BME280;33903;44.704;10.448;2024-02-23T01:12:51;98778.56;;;14.12;83.96
48115;BME280;33903;44.704;10.448;2024-02-23T01:15:55;98758.72;;;13.92;84.55
48115;BME280;33903;44.704;10.448;2024-02-23T01:19:00;98751.91;;;13.75;85.24
48115;BME280;33903;44.704;10.448;2024-02-23T01:22:04;98733.34;;;13.87;84.28
48115;BME280;33903;44.704;10.448;2024-02-23T01:25:09;98732.72;;;13.85;83.53
48115;BME280;33903;44.704;10.448;2024-02-23T01:28:14;98732.78;;;14.25;78.48
48115;BME280;33903;44.704;10.448;2024-02-23T01:31:18;98731.63;;;14.34;76.58
48115;BME280;33903;44.704;10.448;2024-02-23T01:34:23;98738.84;;;14.62;76.78
48115;BME280;33903;44.704;10.448;2024-02-23T01:37:27;98727.56;;;14.86;75.66
48115;BME280;33903;44.704;10.448;2024-02-23T01:40:32;98726.97;;;14.97;75.31
48115;BME280;33903;44.704;10.448;2024-02-23T01:43:36;98720.09;;;14.94;76.56
48115;BME280;33903;44.704;10.448;2024-02-23T01:46:41;98722.94;;;14.73;78.89
48115;BME280;33903;44.704;10.448;2024-02-23T01:49:46;98723.41;;;14.83;78.05
48115;BME280;33903;44.704;10.448;2024-02-23T01:52:52;98718.72;;;14.64;78.16
48115;BME280;33903;44.704;10.448;2024-02-23T01:55:57;98697.13;;;14.64;76.95
48115;BME280;33903;44.704;10.448;2024-02-23T01:59:02;98703.31;;;15.06;75.85
48115;BME280;33903;44.704;10.448;2024-02-23T02:02:07;98699.53;;;14.93;74.89
48115;BME280;33903;44.704;10.448;2024-02-23T02:05:11;98677.94;;;15.07;74.15
48115;BME280;33903;44.704;10.448;2024-02-23T02:08:17;98673.31;;;14.87;75.35
48115;BME280;33903;44.704;10.448;2024-02-23T02:11:21;98666.59;;;14.64;73.17
48115;BME280;33903;44.704;10.448;2024-02-23T02:14:26;98652.63;;;15.21;68.41
48115;BME280;33903;44.704;10.448;2024-02-23T02:17:34;98638.91;;;15.29;64.42
48115;BME280;33903;44.704;10.448;2024-02-23T02:20:40;98625.59;;;15.34;63.85
48115;BME280;33903;44.704;10.448;2024-02-23T02:23:54;98624.56;;;15.35;62.53
48115;BME280;33903;44.704;10.448;2024-02-23T02:26:58;98614.94;;;15.06;63.90
48115;BME280;33903;44.704;10.448;2024-02-23T02:30:03;98609.41;;;15.47;62.68
48115;BME280;33903;44.704;10.448;2024-02-23T02:33:08;98615.00;;;15.39;61.48
48115;BME280;33903;44.704;10.448;2024-02-23T02:36:12;98619.78;;;15.30;61.19
48115;BME280;33903;44.704;10.448;2024-02-23T02:39:17;98607.53;;;15.54;60.44
48115;BME280;33903;44.704;10.448;2024-02-23T02:42:21;98609.59;;;15.72;59.81
48115;BME280;33903;44.704;10.448;2024-02-23T02:45:26;98590.81;;;16.03;58.79
48115;BME280;33903;44.704;10.448;2024-02-23T02:48:30;98598.28;;;16.14;58.04
48115;BME280;33903;44.704;10.448;2024-02-23T02:51:34;98582.50;;;16.04;58.63
48115;BME280;33903;44.704;10.448;2024-02-23T02:54:39;98562.91;;;16.02;58.57
48115;BME280;33903;44.704;10.448;2024-02-23T02:57:45;98554.47;;;16.30;57.97
48115;BME280;33903;44.704;10.448;2024-02-23T03:00:50;98557.50;;;16.02;58.92
48115;BME280;33903;44.704;10.448;2024-02-23T03:03:54;98550.69;;;15.80;59.81
48115;BME280;33903;44.704;10.448;2024-02-23T03:06:58;98541.59;;;15.35;61.66
48115;BME280;33903;44.704;10.448;2024-02-23T03:10:03;98531.84;;;15.47;61.56
48115;BME280;33903;44.704;10.448;2024-02-23T03:13:08;98529.00;;;15.93;58.95
48115;BME280;33903;44.704;10.448;2024-02-23T03:16:17;98526.72;;;15.90;59.43
48115;BME280;33903;44.704;10.448;2024-02-23T03:19:21;98505.88;;;15.97;58.82
48115;BME280;33903;44.704;10.448;2024-02-23T03:22:28;98506.00;;;15.58;59.12
48115;BME280;33903;44.704;10.448;2024-02-23T03:25:32;98508.84;;;15.89;58.46
48115;BME280;33903;44.704;10.448;2024-02-23T03:28:37;98510.41;;;16.10;57.72
48115;BME280;33903;44.704;10.448;2024-02-23T03:31:41;98488.00;;;15.96;58.45
48115;BME280;33903;44.704;10.448;2024-02-23T03:34:46;98476.06;;;15.59;58.48
48115;BME280;33903;44.704;10.448;2024-02-23T03:37:50;98472.06;;;16.19;56.93
48115;BME280;33903;44.704;10.448;2024-02-23T03:40:56;98468.78;;;16.42;56.72
48115;BME280;33903;44.704;10.448;2024-02-23T03:44:00;98463.50;;;16.22;57.55
48115;BME280;33903;44.704;10.448;2024-02-23T03:47:05;98439.66;;;16.00;58.01
48115;BME280;33903;44.704;10.448;2024-02-23T03:50:09;98454.81;;;16.14;57.70
48115;BME280;33903;44.704;10.448;2024-02-23T03:53:14;98448.97;;;16.17;58.44
48115;BME280;33903;44.704;10.448;2024-02-23T03:56:18;98443.34;;;16.18;58.99
48115;BME280;33903;44.704;10.448;2024-02-23T03:59:23;98450.84;;;15.72;60.81
48115;BME280;33903;44.704;10.448;2024-02-23T04:02:28;98432.72;;;15.73;60.79
48115;BME280;33903;44.704;10.448;2024-02-23T04:05:33;98440.78;;;15.86;60.85
48115;BME280;33903;44.704;10.448;2024-02-23T04:08:37;98416.78;;;16.34;58.92
48115;BME280;33903;44.704;10.448;2024-02-23T04:11:42;98406.28;;;16.19;59.79
48115;BME280;33903;44.704;10.448;2024-02-23T04:14:47;98432.63;;;16.30;59.17
48115;BME280;33903;44.704;10.448;2024-02-23T04:17:52;98415.97;;;16.33;58.69
48115;BME280;33903;44.704;10.448;2024-02-23T04:20:57;98417.22;;;16.62;58.66
48115;BME280;33903;44.704;10.448;2024-02-23T04:24:01;98426.56;;;16.35;59.12
48115;BME280;33903;44.704;10.448;2024-02-23T04:27:06;98430.19;;;16.22;60.01
48115;BME280;33903;44.704;10.448;2024-02-23T04:30:12;98412.84;;;15.98;60.56
48115;BME280;33903;44.704;10.448;2024-02-23T04:33:17;98401.41;;;16.27;60.47
48115;BME280;33903;44.704;10.448;2024-02-23T04:36:21;98391.66;;;16.26;59.83
48115;BME280;33903;44.704;10.448;2024-02-23T04:39:26;98380.81;;;16.26;59.97
48115;BME280;33903;44.704;10.448;2024-02-23T04:42:30;98374.25;;;16.41;60.30
48115;BME280;33903;44.704;10.448;2024-02-23T04:45:34;98382.28;;;16.22;60.69
48115;BME280;33903;44.704;10.448;2024-02-23T04:48:39;98376.78;;;16.36;59.99
48115;BME280;33903;44.704;10.448;2024-02-23T04:51:43;98359.34;;;16.32;59.62
48115;BME280;33903;44.704;10.448;2024-02-23T04:54:48;98358.09;;;16.27;60.14
48115;BME280;33903;44.704;10.448;2024-02-23T04:57:52;98349.78;;;16.29;58.92
48115;BME280;33903;44.704;10.448;2024-02-23T05:00:57;98344.72;;;16.33;58.49
48115;BME280;33903;44.704;10.448;2024-02-23T05:04:01;98342.88;;;16.58;57.84
48115;BME280;33903;44.704;10.448;2024-02-23T05:07:08;98338.69;;;16.62;56.82
48115;BME280;33903;44.704;10.448;2024-02-23T05:10:12;98312.53;;;16.92;56.09
48115;BME280;33903;44.704;10.448;2024-02-23T05:13:17;98339.19;;;16.95;55.43
48115;BME280;33903;44.704;10.448;2024-02-23T05:16:22;98337.47;;;17.19;55.43
48115;BME280;33903;44.704;10.448;2024-02-23T05:19:27;98318.34;;;17.32;55.41
48115;BME280;33903;44.704;10.448;2024-02-23T05:22:32;98320.97;;;17.38;54.17
48115;BME280;33903;44.704;10.448;2024-02-23T05:25:36;98329.50;;;17.60;53.91
48115;BME280;33903;44.704;10.448;2024-02-23T05:28:41;98347.75;;;17.83;53.82
48115;BME280;33903;44.704;10.448;2024-02-23T05:31:48;98344.63;;;17.68;54.31
48115;BME280;33903;44.704;10.448;2024-02-23T05:34:53;98345.09;;;17.65;54.96
48115;BME280;33903;44.704;10.448;2024-02-23T05:37:58;98359.53;;;17.77;53.96
48115;BME280;33903;44.704;10.448;2024-02-23T05:41:03;98347.75;;;17.83;54.73
48115;BME280;33903;44.704;10.448;2024-02-23T05:44:09;98338.72;;;17.71;55.95
48115;BME280;33903;44.704;10.448;2024-02-23T05:47:14;98328.56;;;17.66;56.08
48115;BME280;33903;44.704;10.448;2024-02-23T05:50:19;98335.44;;;17.32;56.57
48115;BME280;33903;44.704;10.448;2024-02-23T05:53:24;98330.16;;;17.19;57.19
48115;BME280;33903;44.704;10.448;2024-02-23T05:56:29;98313.44;;;17.22;57.22
48115;BME280;33903;44.704;10.448;2024-02-23T05:59:33;98340.72;;;17.27;57.53
48115;BME280;33903;44.704;10.448;2024-02-23T06:02:38;98328.50;;;17.36;57.59
48115;BME280;33903;44.704;10.448;2024-02-23T06:05:44;98337.69;;;16.99;58.84
48115;BME280;33903;44.704;10.448;2024-02-23T06:08:49;98350.22;;;16.75;59.33
48115;BME280;33903;44.704;10.448;2024-02-23T06:11:56;98367.00;;;17.27;57.57
48115;BME280;33903;44.704;10.448;2024-02-23T06:15:00;98353.34;;;17.33;57.65
48115;BME280;33903;44.704;10.448;2024-02-23T06:18:05;98348.72;;;17.40;57.77
48115;BME280;33903;44.704;10.448;2024-02-23T06:21:16;98356.84;;;17.59;56.58
48115;BME280;33903;44.704;10.448;2024-02-23T06:24:22;98365.50;;;17.49;57.52
48115;BME280;33903;44.704;10.448;2024-02-23T06:27:26;98360.91;;;17.13;60.29
48115;BME280;33903;44.704;10.448;2024-02-23T06:30:32;98377.91;;;17.02;61.08
48115;BME280;33903;44.704;10.448;2024-02-23T06:33:36;98373.72;;;16.81;63.45
48115;BME280;33903;44.704;10.448;2024-02-23T06:36:42;98356.47;;;16.51;66.12
48115;BME280;33903;44.704;10.448;2024-02-23T06:39:46;98360.34;;;16.06;68.53
48115;BME280;33903;44.704;10.448;2024-02-23T06:42:55;98342.44;;;16.29;68.58
48115;BME280;33903;44.704;10.448;2024-02-23T06:46:06;98360.94;;;16.39;69.07
48115;BME280;33903;44.704;10.448;2024-02-23T06:49:11;98365.44;;;15.89;71.68
48115;BME280;33903;44.704;10.448;2024-02-23T06:52:16;98375.56;;;16.32;70.25
48115;BME280;33903;44.704;10.448;2024-02-23T06:55:20;98382.34;;;15.78;72.59
48115;BME280;33903;44.704;10.448;2024-02-23T06:58:26;98381.19;;;14.71;77.63
48115;BME280;33903;44.704;10.448;2024-02-23T07:01:46;98386.66;;;15.35;75.66
48115;BME280;33903;44.704;10.448;2024-02-23T07:04:57;98404.72;;;15.41;75.26
48115;BME280;33903;44.704;10.448;2024-02-23T07:08:05;98413.09;;;15.33;76.98
48115;BME280;33903;44.704;10.448;2024-02-23T07:11:10;98435.19;;;14.77;78.80
48115;BME280;33903;44.704;10.448;2024-02-23T07:14:14;98433.94;;;14.60;79.85
48115;BME280;33903;44.704;10.448;2024-02-23T07:17:21;98437.03;;;14.57;81.64
48115;BME280;33903;44.704;10.448;2024-02-23T07:20:26;98448.91;;;14.76;81.37
48115;BME280;33903;44.704;10.448;2024-02-23T07:23:31;98459.09;;;14.93;80.40
48115;BME280;33903;44.704;10.448;2024-02-23T07:26:36;98460.09;;;14.60;82.32
48115;BME280;33903;44.704;10.448;2024-02-23T07:29:40;98455.06;;;14.37;83.67
48115;BME280;33903;44.704;10.448;2024-02-23T07:32:45;98473.78;;;14.39;84.03
48115;BME280;33903;44.704;10.448;2024-02-23T07:35:52;98478.13;;;14.33;84.48
48115;BME280;33903;44.704;10.448;2024-02-23T07:38:57;98491.50;;;14.74;84.34
48115;BME280;33903;44.704;10.448;2024-02-23T07:42:02;98493.13;;;14.49;83.97
48115;BME280;33903;44.704;10.448;2024-02-23T07:45:08;98490.41;;;14.55;84.25
48115;BME280;33903;44.704;10.448;2024-02-23T07:48:13;98494.19;;;15.07;81.80
48115;BME280;33903;44.704;10.448;2024-02-23T07:51:18;98508.94;;;14.71;84.06
48115;BME280;33903;44.704;10.448;2024-02-23T07:54:23;98512.88;;;14.82;83.63
48115;BME280;33903;44.704;10.448;2024-02-23T07:57:27;98517.41;;;14.62;84.25
48115;BME280;33903;44.704;10.448;2024-02-23T08:00:32;98517.38;;;14.42;86.19
48115;BME280;33903;44.704;10.448;2024-02-23T08:03:39;98512.88;;;14.82;84.59
48115;BME280;33903;44.704;10.448;2024-02-23T08:06:44;98519.75;;;14.78;84.56
48115;BME280;33903;44.704;10.448;2024-02-23T08:09:49;98512.25;;;14.86;84.40
48115;BME280;33903;44.704;10.448;2024-02-23T08:12:55;98500.00;;;14.71;85.27
48115;BME280;33903;44.704;10.448;2024-02-23T08:15:59;98503.19;;;14.27;86.33
48115;BME280;33903;44.704;10.448;2024-02-23T08:19:04;98511.44;;;14.79;84.99
48115;BME280;33903;44.704;10.448;2024-02-23T08:22:09;98514.88;;;14.34;86.44
48115;BME280;33903;44.704;10.448;2024-02-23T08:25:14;98515.16;;;14.72;84.94
48115;BME280;33903;44.704;10.448;2024-02-23T08:28:18;98512.88;;;14.75;84.42
48115;BME280;33903;44.704;10.448;2024-02-23T08:31:23;98507.06;;;14.78;84.86
48115;BME280;33903;44.704;10.448;2024-02-23T08:34:29;98503.31;;;14.79;83.93
48115;BME280;33903;44.704;10.448;2024-02-23T08:37:33;98516.44;;;14.76;84.13
48115;BME280;33903;44.704;10.448;2024-02-23T08:40:38;98518.44;;;14.54;85.83
48115;BME280;33903;44.704;10.448;2024-02-23T08:43:44;98521.41;;;14.66;84.96
48115;BME280;33903;44.704;10.448;2024-02-23T08:46:49;98524.09;;;14.66;85.31
48115;BME280;33903;44.704;10.448;2024-02-23T08:49:54;98520.13;;;14.55;84.87
48115;BME280;33903;44.704;10.448;2024-02-23T08:52:59;98528.19;;;14.42;86.44
48115;BME280;33903;44.704;10.448;2024-02-23T08:56:06;98524.00;;;14.33;86.12
48115;BME280;33903;44.704;10.448;2024-02-23T08:59:11;98526.78;;;14.72;84.71
48115;BME280;33903;44.704;10.448;2024-02-23T09:02:15;98527.19;;;14.69;84.45
48115;BME280;33903;44.704;10.448;2024-02-23T09:05:20;98532.03;;;15.13;83.76
48115;BME280;33903;44.704;10.448;2024-02-23T09:08:25;98534.91;;;14.92;84.20
48115;BME280;33903;44.704;10.448;2024-02-23T09:11:29;98532.44;;;14.97;83.64
48115;BME280;33903;44.704;10.448;2024-02-23T09:14:34;98549.47;;;14.84;84.45
48115;BME280;33903;44.704;10.448;2024-02-23T09:17:42;98546.16;;;14.95;83.45
48115;BME280;33903;44.704;10.448;2024-02-23T09:20:46;98554.91;;;15.17;82.86
48115;BME280;33903;44.704;10.448;2024-02-23T09:23:51;98562.59;;;15.20;82.50
48115;BME280;33903;44.704;10.448;2024-02-23T09:26:55;98573.59;;;15.19;82.45
48115;BME280;33903;44.704;10.448;2024-02-23T09:30:00;98577.78;;;15.28;81.41
48115;BME280;33903;44.704;10.448;2024-02-23T09:33:05;98579.22;;;15.37;81.58
48115;BME280;33903;44.704;10.448;2024-02-23T09:36:09;98577.13;;;15.39;81.15
48115;BME280;33903;44.704;10.448;2024-02-23T09:39:14;98584.22;;;15.40;80.93
48115;BME280;33903;44.704;10.448;2024-02-23T09:42:19;98577.34;;;15.63;80.34
48115;BME280;33903;44.704;10.448;2024-02-23T09:45:27;98586.69;;;15.22;80.67
48115;BME280;33903;44.704;10.448;2024-02-23T09:48:34;98577.34;;;15.05;82.93
48115;BME280;33903;44.704;10.448;2024-02-23T09:51:40;98586.03;;;14.87;84.21
48115;BME280;33903;44.704;10.448;2024-02-23T09:54:45;98593.75;;;15.03;82.97
48115;BME280;33903;44.704;10.448;2024-02-23T09:57:52;98577.34;;;15.24;82.75
48115;BME280;33903;44.704;10.448;2024-02-23T10:01:02;98578.16;;;15.12;83.24
48115;BME280;33903;44.704;10.448;2024-02-23T10:04:07;98579.78;;;14.86;84.15
48115;BME280;33903;44.704;10.448;2024-02-23T10:07:16;98587.72;;;14.94;83.96
48115;BME280;33903;44.704;10.448;2024-02-23T10:10:29;98588.56;;;14.88;83.58
48115;BME280;33903;44.704;10.448;2024-02-23T10:13:36;98592.09;;;15.09;82.46
48115;BME280;33903;44.704;10.448;2024-02-23T10:16:41;98595.03;;;14.40;85.13
48115;BME280;33903;44.704;10.448;2024-02-23T10:19:45;98610.88;;;13.81;87.85
48115;BME280;33903;44.704;10.448;2024-02-23T10:22:52;98617.16;;;14.76;84.99
48115;BME280;33903;44.704;10.448;2024-02-23T10:25:57;98595.66;;;14.42;85.70
48115;BME280;33903;44.704;10.448;2024-02-23T10:29:02;98587.31;;;14.91;83.94
48115;BME280;33903;44.704;10.448;2024-02-23T10:32:11;98591.88;;;14.90;83.42
48115;BME280;33903;44.704;10.448;2024-02-23T10:35:20;98593.91;;;14.28;85.00
48115;BME280;33903;44.704;10.448;2024-02-23T10:38:26;98579.94;;;14.11;87.06
48115;BME280;33903;44.704;10.448;2024-02-23T10:41:35;98581.81;;;14.17;87.55
48115;BME280;33903;44.704;10.448;2024-02-23T10:44:41;98581.34;;;14.07;87.92
48115;BME280;33903;44.704;10.448;2024-02-23T10:47:48;98569.50;;;14.43;86.54
48115;BME280;33903;44.704;10.448;2024-02-23T10:50:53;98565.06;;;14.28;85.84
48115;BME280;33903;44.704;10.448;2024-02-23T10:53:59;98561.91;;;14.72;84.69
48115;BME280;33903;44.704;10.448;2024-02-23T10:57:04;98545.25;;;14.62;84.96
48115;BME280;33903;44.704;10.448;2024-02-23T11:00:09;98564.66;;;15.05;83.07
48115;BME280;33903;44.704;10.448;2024-02-23T11:03:14;98569.00;;;15.06;83.15
48115;BME280;33903;44.704;10.448;2024-02-23T11:06:27;98562.78;;;14.86;83.75
48115;BME280;33903;44.704;10.448;2024-02-23T11:09:32;98553.44;;;15.15;82.39
48115;BME280;33903;44.704;10.448;2024-02-23T11:12:37;98573.59;;;15.12;82.61
48115;BME280;33903;44.704;10.448;2024-02-23T11:15:42;98577.56;;;15.10;81.86
48115;BME280;33903;44.704;10.448;2024-02-23T11:18:47;98605.41;;;15.17;81.55
48115;BME280;33903;44.704;10.448;2024-02-23T11:21:52;98595.00;;;15.14;81.92
48115;BME280;33903;44.704;10.448;2024-02-23T11:25:03;98590.66;;;15.13;82.25
48115;BME280;33903;44.704;10.448;2024-02-23T11:28:08;98595.00;;;15.14;81.72
48115;BME280;33903;44.704;10.448;2024-02-23T11:31:14;98583.16;;;14.95;81.89
48115;BME280;33903;44.704;10.448;2024-02-23T11:34:22;98584.19;;;15.01;81.82
48115;BME280;33903;44.704;10.448;2024-02-23T11:37:28;98584.41;;;15.32;81.13
48115;BME280;33903;44.704;10.448;2024-02-23T11:40:37;98588.56;;;15.21;81.77
48115;BME280;33903;44.704;10.448;2024-02-23T11:43:43;98574.84;;;15.36;81.00
48115;BME280;33903;44.704;10.448;2024-02-23T11:46:48;98578.41;;;15.30;80.57
48115;BME280;33903;44.704;10.448;2024-02-23T11:49:53;98564.84;;;15.04;81.58
48115;BME280;33903;44.704;10.448;2024-02-23T11:52:57;98561.53;;;15.15;81.14
48115;BME280;33903;44.704;10.448;2024-02-23T11:56:04;98564.44;;;14.93;80.79
48115;BME280;33903;44.704;10.448;2024-02-23T11:59:10;98574.59;;;14.85;81.37
48115;BME280;33903;44.704;10.448;2024-02-23T12:02:14;98579.38;;;14.89;82.04
48115;BME280;33903;44.704;10.448;2024-02-23T12:05:19;98560.06;;;14.99;82.15
48115;BME280;33903;44.704;10.448;2024-02-23T12:08:28;98554.19;;;14.69;83.07
48115;BME280;33903;44.704;10.448;2024-02-23T12:11:34;98548.81;;;14.69;83.42
48115;BME280;33903;44.704;10.448;2024-02-23T12:14:40;98551.91;;;14.53;83.59
48115;BME280;33903;44.704;10.448;2024-02-23T12:17:48;98545.69;;;14.79;83.23
48115;BME280;33903;44.704;10.448;2024-02-23T12:20:52;98536.38;;;14.94;82.85
48115;BME280;33903;44.704;10.448;2024-02-23T12:23:57;98537.84;;;14.90;82.37
48115;BME280;33903;44.704;10.448;2024-02-23T12:27:02;98542.41;;;14.90;82.95
48115;BME280;33903;44.704;10.448;2024-02-23T12:30:13;98540.53;;;14.97;82.42
48115;BME280;33903;44.704;10.448;2024-02-23T12:33:20;98538.88;;;15.03;82.04
48115;BME280;33903;44.704;10.448;2024-02-23T12:36:24;98537.81;;;15.04;81.59
48115;BME280;33903;44.704;10.448;2024-02-23T12:39:29;98542.41;;;14.90;82.00
48115;BME280;33903;44.704;10.448;2024-02-23T12:42:34;98547.38;;;14.80;82.74
48115;BME280;33903;44.704;10.448;2024-02-23T12:45:38;98543.63;;;14.61;82.90
48115;BME280;33903;44.704;10.448;2024-02-23T12:48:43;98550.25;;;14.65;83.51
48115;BME280;33903;44.704;10.448;2024-02-23T12:51:48;98537.41;;;14.74;83.60
48115;BME280;33903;44.704;10.448;2024-02-23T12:54:53;98535.56;;;15.01;82.72
48115;BME280;33903;44.704;10.448;2024-02-23T12:57:58;98552.38;;;14.89;83.13
48115;BME280;33903;44.704;10.448;2024-02-23T13:01:03;98564.63;;;14.85;83.54
48115;BME280;33903;44.704;10.448;2024-02-23T13:04:08;98558.00;;;14.94;83.43
48115;BME280;33903;44.704;10.448;2024-02-23T13:07:15;98538.25;;;14.94;83.23
48115;BME280;33903;44.704;10.448;2024-02-23T13:10:21;98535.34;;;15.15;83.39
48115;BME280;33903;44.704;10.448;2024-02-23T13:13:26;98531.81;;;15.08;83.70
48115;BME280;33903;44.704;10.448;2024-02-23T13:16:31;98536.34;;;14.68;86.12
48115;BME280;33903;44.704;10.448;2024-02-23T13:19:35;98518.66;;;14.59;85.97
48115;BME280;33903;44.704;10.448;2024-02-23T13:22:40;98521.78;;;14.56;86.47
48115;BME280;33903;44.704;10.448;2024-02-23T13:25:45;98518.66;;;14.46;86.82
48115;BME280;33903;44.704;10.448;2024-02-23T13:28:50;98513.06;;;14.67;86.55
48115;BME280;33903;44.704;10.448;2024-02-23T13:31:55;98508.50;;;14.61;85.58
48115;BME280;33903;44.704;10.448;2024-02-23T13:34:59;98501.84;;;14.57;85.55
48115;BME280;33903;44.704;10.448;2024-02-23T13:38:08;98507.59;;;14.34;86.80
48115;BME280;33903;44.704;10.448;2024-02-23T13:41:14;98505.72;;;14.35;85.91
48115;BME280;33903;44.704;10.448;2024-02-23T13:44:18;98498.25;;;14.37;86.53
48115;BME280;33903;44.704;10.448;2024-02-23T13:47:23;98511.75;;;14.30;86.82
48115;BME280;33903;44.704;10.448;2024-02-23T13:50:27;98521.06;;;14.28;87.11
48115;BME280;33903;44.704;10.448;2024-02-23T13:53:32;98511.44;;;14.06;87.82
48115;BME280;33903;44.704;10.448;2024-02-23T13:56:37;98496.41;;;14.38;87.46
48115;BME280;33903;44.704;10.448;2024-02-23T13:59:42;98493.34;;;14.54;86.02
48115;BME280;33903;44.704;10.448;2024-02-23T14:02:46;98503.44;;;14.32;86.62
48115;BME280;33903;44.704;10.448;2024-02-23T14:05:51;98509.28;;;14.42;86.22
48115;BME280;33903;44.704;10.448;2024-02-23T14:08:56;98511.50;;;14.25;86.65
48115;BME280;33903;44.704;10.448;2024-02-23T14:12:01;98506.59;;;14.42;86.38
48115;BME280;33903;44.704;10.448;2024-02-23T14:15:06;98520.97;;;14.49;85.96
48115;BME280;33903;44.704;10.448;2024-02-23T14:18:11;98517.84;;;14.72;85.13
48115;BME280;33903;44.704;10.448;2024-02-23T14:21:16;98513.94;;;14.87;84.35
48115;BME280;33903;44.704;10.448;2024-02-23T14:24:24;98503.75;;;14.89;85.00
48115;BME280;33903;44.704;10.448;2024-02-23T14:27:29;98506.66;;;14.94;84.80
48115;BME280;33903;44.704;10.448;2024-02-23T14:30:34;98510.59;;;14.92;84.50
48115;BME280;33903;44.704;10.448;2024-02-23T14:33:39;98494.59;;;15.04;83.56
48115;BME280;33903;44.704;10.448;2024-02-23T14:36:44;98500.63;;;14.99;83.05
48115;BME280;33903;44.704;10.448;2024-02-23T14:39:49;98503.56;;;14.91;83.57
48115;BME280;33903;44.704;10.448;2024-02-23T14:42:54;98499.19;;;15.23;82.84
48115;BME280;33903;44.704;10.448;2024-02-23T14:45:59;98492.94;;;15.09;83.27
48115;BME280;33903;44.704;10.448;2024-02-23T14:49:03;98495.25;;;15.06;83.49
48115;BME280;33903;44.704;10.448;2024-02-23T14:52:11;98484.00;;;15.48;81.95
48115;BME280;33903;44.704;10.448;2024-02-23T14:55:16;98456.13;;;15.47;81.94
48115;BME280;33903;44.704;10.448;2024-02-23T14:58:22;98456.97;;;15.22;82.48
48115;BME280;33903;44.704;10.448;2024-02-23T15:01:27;98445.78;;;14.92;84.04
48115;BME280;33903;44.704;10.448;2024-02-23T15:04:32;98442.25;;;14.78;85.13
48115;BME280;33903;44.704;10.448;2024-02-23T15:07:36;98444.75;;;14.73;85.81
48115;BME280;33903;44.704;10.448;2024-02-23T15:10:42;98448.88;;;15.15;83.63
48115;BME280;33903;44.704;10.448;2024-02-23T15:13:46;98445.97;;;14.97;84.15
48115;BME280;33903;44.704;10.448;2024-02-23T15:16:50;98443.28;;;15.10;83.92
48115;BME280;33903;44.704;10.448;2024-02-23T15:19:55;98440.38;;;14.98;84.37
48115;BME280;33903;44.704;10.448;2024-02-23T15:22:59;98449.91;;;14.94;84.24
48115;BME280;33903;44.704;10.448;2024-02-23T15:26:06;98441.19;;;14.92;85.32
48115;BME280;33903;44.704;10.448;2024-02-23T15:29:10;98439.34;;;14.93;85.39
48115;BME280;33903;44.704;10.448;2024-02-23T15:32:17;98434.56;;;14.95;85.61
48115;BME280;33903;44.704;10.448;2024-02-23T15:35:21;98443.91;;;14.79;85.53
48115;BME280;33903;44.704;10.448;2024-02-23T15:38:26;98435.19;;;14.90;85.40
48115;BME280;33903;44.704;10.448;2024-02-23T15:41:30;98453.03;;;14.72;85.51
48115;BME280;33903;44.704;10.448;2024-02-23T15:44:35;98448.25;;;14.87;84.25
48115;BME280;33903;44.704;10.448;2024-02-23T15:47:39;98458.25;;;14.80;85.58
48115;BME280;33903;44.704;10.448;2024-02-23T15:50:44;98451.59;;;15.02;85.43
48115;BME280;33903;44.704;10.448;2024-02-23T15:53:49;98445.94;;;15.17;85.13
48115;BME280;33903;44.704;10.448;2024-02-23T15:56:53;98436.78;;;15.24;85.07
48115;BME280;33903;44.704;10.448;2024-02-23T15:59:58;98432.28;;;14.85;86.89
48115;BME280;33903;44.704;10.448;2024-02-23T16:03:02;98444.13;;;14.91;85.23
48115;BME280;33903;44.704;10.448;2024-02-23T16:06:07;98449.50;;;15.11;85.58
48115;BME280;33903;44.704;10.448;2024-02-23T16:09:11;98448.44;;;15.12;85.19